Aviation Digital Data Service (ADDS)

Output produced by TAFs form (0944 UTC 20 October 2014)
found at http://www.aviationweather.gov/adds/tafs/
 
KALB 200558Z 2006/2106 VRB02KT P6SM SCT045 SCT150 BKN250 
     FM201400 18005KT P6SM BKN120 BKN200 
     FM201600 18008KT P6SM BKN120 
     FM202300 17004KT P6SM OVC100